createdAt,value
2023-01-29T00:02:19.817Z,100.00
2023-01-29T00:04:47.648Z,100.00
2023-01-29T00:07:15.169Z,100.00
2023-01-29T00:09:42.846Z,100.00
2023-01-29T00:12:10.868Z,100.00
2023-01-29T00:14:38.416Z,100.00
2023-01-29T00:17:05.914Z,100.00
2023-01-29T00:19:33.832Z,100.00
2023-01-29T00:22:01.393Z,100.00
2023-01-29T00:24:28.962Z,100.00
2023-01-29T00:26:56.800Z,100.00
2023-01-29T00:29:24.410Z,100.00
2023-01-29T00:31:52.072Z,100.00
2023-01-29T00:34:20.217Z,100.00
2023-01-29T00:36:47.752Z,100.00
2023-01-29T00:39:15.430Z,100.00
2023-01-29T00:42:01.892Z,100.00
2023-01-29T00:44:47.769Z,100.00
2023-01-29T00:47:30.962Z,100.00
2023-01-29T00:50:00.762Z,100.00
2023-01-29T00:52:29.090Z,100.00
2023-01-29T00:54:58.485Z,100.00
2023-01-29T00:57:27.901Z,100.00
2023-01-29T00:59:56.224Z,100.00
2023-01-29T01:02:42.459Z,100.00
2023-01-29T01:05:18.179Z,100.00
2023-01-29T01:07:47.761Z,99.57
2023-01-29T01:10:24.221Z,99.25
2023-01-29T01:13:06.065Z,99.22
2023-01-29T01:15:39.022Z,98.76
2023-01-29T01:18:06.683Z,98.97
2023-01-29T01:20:35.529Z,98.89
2023-01-29T01:23:03.810Z,99.11
2023-01-29T01:25:31.363Z,99.29
2023-01-29T01:30:26.887Z,99.32
2023-01-29T01:32:54.431Z,99.40
2023-01-29T01:35:22.259Z,99.31
2023-01-29T01:37:49.898Z,99.35
2023-01-29T01:40:20.975Z,99.22
2023-01-29T01:42:53.893Z,99.27
2023-01-29T01:45:37.122Z,99.56
2023-01-29T01:48:08.233Z,99.63
2023-01-29T01:50:40.602Z,99.72
2023-01-29T01:53:13.207Z,99.69
2023-01-29T01:55:45.894Z,99.66
2023-01-29T01:58:19.861Z,99.48
2023-01-29T02:00:47.426Z,99.34
2023-01-29T02:03:34.034Z,98.45
2023-01-29T02:06:20.883Z,98.97
2023-01-29T02:09:17.574Z,98.04
2023-01-29T02:11:45.556Z,98.00
2023-01-29T02:14:13.098Z,97.51
2023-01-29T02:16:40.683Z,96.99
2023-01-29T02:19:19.348Z,96.26
2023-01-29T02:22:03.753Z,95.10
2023-01-29T02:25:00.143Z,94.26
2023-01-29T02:27:46.535Z,94.01
2023-01-29T02:30:20.871Z,94.12
2023-01-29T02:33:36.039Z,93.10
2023-01-29T02:36:24.885Z,91.40
2023-01-29T02:38:58.588Z,90.42
2023-01-29T02:41:30.359Z,90.15
2023-01-29T02:44:14.750Z,90.34
2023-01-29T02:46:56.752Z,90.57
2023-01-29T02:49:35.599Z,89.63
2023-01-29T02:52:07.576Z,89.58
2023-01-29T02:54:53.653Z,89.78
2023-01-29T02:57:30.316Z,88.66
2023-01-29T03:00:07.468Z,88.25
2023-01-29T03:02:45.216Z,88.03
2023-01-29T03:05:15.870Z,88.11
2023-01-29T03:07:52.034Z,88.31
2023-01-29T03:10:21.988Z,87.60
2023-01-29T03:13:01.659Z,87.48
2023-01-29T03:15:38.793Z,88.02
2023-01-29T03:18:16.734Z,87.93
2023-01-29T03:20:50.515Z,87.66
2023-01-29T03:23:52.520Z,87.72
2023-01-29T03:26:40.317Z,87.66
2023-01-29T03:29:27.836Z,87.88
2023-01-29T03:32:06.639Z,88.06
2023-01-29T03:34:42.096Z,87.21
2023-01-29T03:37:15.939Z,87.37
2023-01-29T03:39:44.590Z,87.78
2023-01-29T03:42:34.837Z,87.39
2023-01-29T03:45:14.510Z,87.49
2023-01-29T03:47:56.859Z,87.40
2023-01-29T03:50:54.804Z,87.24
2023-01-29T03:53:30.154Z,87.61
2023-01-29T03:55:59.744Z,87.44
2023-01-29T03:58:41.204Z,87.44
2023-01-29T04:01:21.586Z,87.41
2023-01-29T04:03:49.650Z,87.94
2023-01-29T04:06:20.513Z,87.46
2023-01-29T04:08:59.384Z,87.30
2023-01-29T04:11:28.708Z,86.92
2023-01-29T04:13:57.440Z,87.26
2023-01-29T04:16:29.652Z,87.27
2023-01-29T04:18:59.126Z,87.37
2023-01-29T04:21:27.225Z,86.72
2023-01-29T04:23:54.981Z,86.51
2023-01-29T04:26:29.338Z,86.77
2023-01-29T04:29:27.825Z,86.94
2023-01-29T04:32:08.183Z,87.22
2023-01-29T04:35:01.601Z,87.23
2023-01-29T04:37:40.579Z,87.20
2023-01-29T04:40:23.509Z,86.63
2023-01-29T04:43:08.034Z,87.11
2023-01-29T04:45:35.505Z,86.91
2023-01-29T04:48:27.291Z,86.95
2023-01-29T04:51:08.579Z,86.51
2023-01-29T04:54:23.989Z,86.59
2023-01-29T04:56:56.443Z,86.23
2023-01-29T04:59:43.421Z,86.49
2023-01-29T05:02:11.981Z,86.68
2023-01-29T05:04:41.716Z,85.72
2023-01-29T05:07:13.200Z,86.14
2023-01-29T05:09:44.182Z,85.62
2023-01-29T05:12:13.247Z,85.60
2023-01-29T05:14:43.107Z,86.03
2023-01-29T05:17:15.951Z,85.47
2023-01-29T05:19:44.297Z,85.06
2023-01-29T05:22:13.777Z,85.38
2023-01-29T05:24:41.295Z,85.37
2023-01-29T05:27:35.617Z,85.64
2023-01-29T05:30:04.116Z,85.57
2023-01-29T05:32:32.138Z,85.93
2023-01-29T05:34:59.683Z,85.79
2023-01-29T05:37:27.178Z,85.53
2023-01-29T05:39:55.239Z,85.86
2023-01-29T05:42:23.018Z,85.45
2023-01-29T05:44:50.561Z,85.21
2023-01-29T05:47:21.832Z,85.37
2023-01-29T05:49:49.458Z,85.80
2023-01-29T05:52:16.984Z,85.54
2023-01-29T05:54:44.790Z,85.55
2023-01-29T05:57:12.283Z,85.23
2023-01-29T05:59:40.298Z,85.67
2023-01-29T06:02:08.172Z,86.09
2023-01-29T06:04:36.076Z,85.68
2023-01-29T06:07:05.160Z,85.55
2023-01-29T06:09:32.846Z,86.06
2023-01-29T06:12:00.826Z,86.06
2023-01-29T06:14:28.504Z,85.94
2023-01-29T06:16:56.119Z,85.81
2023-01-29T06:19:24.008Z,85.60
2023-01-29T06:21:52.164Z,85.93
2023-01-29T06:24:19.928Z,85.80
2023-01-29T06:26:48.307Z,85.52
2023-01-29T06:29:15.900Z,85.71
2023-01-29T06:31:43.526Z,85.63
2023-01-29T06:34:11.399Z,85.42
2023-01-29T06:36:39.019Z,85.89
2023-01-29T06:39:06.555Z,85.94
2023-01-29T06:41:34.843Z,85.53
2023-01-29T06:44:02.424Z,85.36
2023-01-29T06:46:29.912Z,85.07
2023-01-29T06:49:00.440Z,85.17
2023-01-29T06:51:28.162Z,85.04
2023-01-29T06:53:56.525Z,84.89
2023-01-29T06:56:24.667Z,85.00
2023-01-29T06:58:52.175Z,84.78
2023-01-29T07:01:34.729Z,84.93
2023-01-29T07:04:04.377Z,84.68
2023-01-29T07:06:32.176Z,84.59
2023-01-29T07:08:59.892Z,84.19
2023-01-29T07:11:27.695Z,84.57
2023-01-29T07:13:55.189Z,84.79
2023-01-29T07:16:23.572Z,83.96
2023-01-29T07:18:51.565Z,84.24
2023-01-29T07:21:19.181Z,84.15
2023-01-29T07:23:46.912Z,84.50
2023-01-29T07:26:14.797Z,83.86
2023-01-29T07:28:42.479Z,83.58
2023-01-29T07:31:12.747Z,83.81
2023-01-29T07:33:40.927Z,83.48
2023-01-29T07:36:09.998Z,83.75
2023-01-29T07:38:38.156Z,84.00
2023-01-29T07:41:06.368Z,83.18
2023-01-29T07:43:33.894Z,83.71
2023-01-29T07:46:03.438Z,82.96
2023-01-29T07:48:31.308Z,82.94
2023-01-29T07:50:59.139Z,83.00
2023-01-29T07:53:27.482Z,82.61
2023-01-29T07:55:55.611Z,82.94
2023-01-29T07:58:23.326Z,82.13
2023-01-29T08:00:51.331Z,82.00
2023-01-29T08:03:20.311Z,81.45
2023-01-29T08:05:48.233Z,81.97
2023-01-29T08:08:16.103Z,81.16
2023-01-29T08:10:44.289Z,80.86
2023-01-29T08:13:12.127Z,80.68
2023-01-29T08:15:43.659Z,81.33
2023-01-29T08:18:11.749Z,80.92
2023-01-29T08:20:39.562Z,81.12
2023-01-29T08:23:10.688Z,80.94
2023-01-29T08:25:38.603Z,79.51
2023-01-29T08:28:06.384Z,80.19
2023-01-29T08:30:34.827Z,79.87
2023-01-29T08:33:04.144Z,79.59
2023-01-29T08:35:31.886Z,79.98
2023-01-29T08:38:01.337Z,79.06
2023-01-29T08:40:33.826Z,79.65
2023-01-29T08:43:03.463Z,78.34
2023-01-29T08:45:38.176Z,78.19
2023-01-29T08:48:05.998Z,77.53
2023-01-29T08:50:35.049Z,77.35
2023-01-29T08:53:07.640Z,77.14
2023-01-29T08:55:37.494Z,77.27
2023-01-29T08:58:06.097Z,77.10
2023-01-29T09:00:34.729Z,77.56
2023-01-29T09:03:03.286Z,75.82
2023-01-29T09:05:30.783Z,75.42
2023-01-29T09:07:58.556Z,76.44
2023-01-29T09:10:27.035Z,76.08
2023-01-29T09:12:54.643Z,75.76
2023-01-29T09:15:22.634Z,75.59
2023-01-29T09:17:50.559Z,75.12
2023-01-29T09:20:19.637Z,75.63
2023-01-29T09:22:47.851Z,75.78
2023-01-29T09:25:18.555Z,75.83
2023-01-29T09:27:49.922Z,74.51
2023-01-29T09:30:18.844Z,74.84
2023-01-29T09:32:54.623Z,74.36
2023-01-29T09:35:23.620Z,74.51
2023-01-29T09:37:52.097Z,75.36
2023-01-29T09:40:35.910Z,74.47
2023-01-29T09:43:13.094Z,74.32
2023-01-29T09:45:50.344Z,74.44
2023-01-29T09:48:18.767Z,74.83
2023-01-29T09:50:50.496Z,74.73
2023-01-29T09:53:30.039Z,74.62
2023-01-29T09:56:06.311Z,74.80
2023-01-29T09:58:37.443Z,74.72
2023-01-29T10:01:13.848Z,75.38
2023-01-29T10:04:03.659Z,75.16
2023-01-29T10:06:31.113Z,75.94
2023-01-29T10:09:13.772Z,75.80
2023-01-29T10:12:00.739Z,75.69
2023-01-29T10:15:06.217Z,76.72
2023-01-29T10:17:52.032Z,75.08
2023-01-29T10:20:34.649Z,76.51
2023-01-29T10:23:21.595Z,76.00
2023-01-29T10:25:49.930Z,75.31
2023-01-29T10:28:43.225Z,75.94
2023-01-29T10:31:15.926Z,77.08
2023-01-29T10:34:01.011Z,77.54
2023-01-29T10:36:43.495Z,76.83
2023-01-29T10:39:22.393Z,77.52
2023-01-29T10:42:05.909Z,77.46
2023-01-29T10:45:09.157Z,76.98
2023-01-29T10:47:52.684Z,77.32
2023-01-29T10:50:39.205Z,77.30
2023-01-29T10:53:35.930Z,77.03
2023-01-29T10:56:41.749Z,77.64
2023-01-29T10:59:37.495Z,77.64
2023-01-29T11:02:16.250Z,77.24
2023-01-29T11:04:44.085Z,76.49
2023-01-29T11:07:12.507Z,77.26
2023-01-29T11:09:44.507Z,77.21
2023-01-29T11:12:15.742Z,77.57
2023-01-29T11:15:02.117Z,78.23
2023-01-29T11:17:30.212Z,78.23
2023-01-29T11:19:57.746Z,78.02
2023-01-29T11:22:27.115Z,77.79
2023-01-29T11:25:18.056Z,77.75
2023-01-29T11:27:48.444Z,77.76
2023-01-29T11:30:39.836Z,77.81
2023-01-29T11:33:20.804Z,77.62
2023-01-29T11:35:48.678Z,78.21
2023-01-29T11:38:16.182Z,78.39
2023-01-29T11:40:44.984Z,78.11
2023-01-29T11:43:28.083Z,78.42
2023-01-29T11:46:01.194Z,77.88
2023-01-29T11:48:39.795Z,77.89
2023-01-29T11:51:08.077Z,78.54
2023-01-29T11:53:39.340Z,77.81
2023-01-29T11:56:15.530Z,78.51
2023-01-29T11:58:44.096Z,77.90
2023-01-29T12:01:12.175Z,77.99
2023-01-29T12:03:43.886Z,78.22
2023-01-29T12:06:23.473Z,78.09
2023-01-29T12:09:00.571Z,78.10
2023-01-29T12:11:29.764Z,77.83
2023-01-29T12:14:00.210Z,78.29
2023-01-29T12:16:38.473Z,78.13
2023-01-29T12:19:15.878Z,78.09
2023-01-29T12:21:50.640Z,78.55
2023-01-29T12:24:43.707Z,79.18
2023-01-29T12:27:21.530Z,78.92
2023-01-29T12:30:15.197Z,78.63
2023-01-29T12:32:44.863Z,78.62
2023-01-29T12:35:19.808Z,78.32
2023-01-29T12:38:09.527Z,80.12
2023-01-29T12:40:44.245Z,80.10
2023-01-29T12:43:19.633Z,80.71
2023-01-29T12:45:52.236Z,81.42
2023-01-29T12:48:25.261Z,82.01
2023-01-29T12:50:54.188Z,81.87
2023-01-29T12:53:27.694Z,83.29
2023-01-29T12:56:02.339Z,83.56
2023-01-29T12:58:35.471Z,83.82
2023-01-29T13:01:08.450Z,84.22
2023-01-29T13:03:51.822Z,85.13
2023-01-29T13:06:44.882Z,85.28
2023-01-29T13:09:15.914Z,85.38
2023-01-29T13:11:52.056Z,85.49
2023-01-29T13:14:26.181Z,85.57
2023-01-29T13:16:58.073Z,86.12
2023-01-29T13:19:31.644Z,86.41
2023-01-29T13:22:01.589Z,87.07
2023-01-29T13:24:44.361Z,86.90
2023-01-29T13:27:21.763Z,87.37
2023-01-29T13:29:49.976Z,86.92
2023-01-29T13:32:29.721Z,86.89
2023-01-29T13:35:03.778Z,86.95
2023-01-29T13:37:38.099Z,86.92
2023-01-29T13:40:07.245Z,86.86
2023-01-29T13:42:47.641Z,87.13
2023-01-29T13:45:44.387Z,86.70
2023-01-29T13:48:28.334Z,86.28
2023-01-29T13:50:56.907Z,86.73
2023-01-29T13:53:29.289Z,86.93
2023-01-29T13:56:29.960Z,86.24
2023-01-29T13:58:58.088Z,85.73
2023-01-29T14:01:47.742Z,86.12
2023-01-29T14:04:29.732Z,86.08
2023-01-29T14:07:03.256Z,85.39
2023-01-29T14:09:37.166Z,84.99
2023-01-29T14:12:24.711Z,84.88
2023-01-29T14:14:55.258Z,84.16
2023-01-29T14:17:23.193Z,84.17
2023-01-29T14:20:03.515Z,83.91
2023-01-29T14:22:34.715Z,83.63
2023-01-29T14:25:05.421Z,83.74
2023-01-29T14:27:34.676Z,83.54
2023-01-29T14:30:07.834Z,83.48
2023-01-29T14:32:39.666Z,83.93
2023-01-29T14:35:18.854Z,83.78
2023-01-29T14:37:49.327Z,83.43
2023-01-29T14:40:17.698Z,83.97
2023-01-29T14:42:55.565Z,84.51
2023-01-29T14:45:26.261Z,84.84
2023-01-29T14:48:01.327Z,84.76
2023-01-29T14:50:29.463Z,84.70
2023-01-29T14:53:14.813Z,84.02
2023-01-29T14:55:56.648Z,85.43
2023-01-29T14:58:27.463Z,85.47
2023-01-29T15:00:57.462Z,85.12
2023-01-29T15:03:39.833Z,85.15
2023-01-29T15:06:10.581Z,85.11
2023-01-29T15:08:42.237Z,84.49
2023-01-29T15:11:50.571Z,84.27
2023-01-29T15:14:29.363Z,84.93
2023-01-29T15:17:19.919Z,84.78
2023-01-29T15:19:48.662Z,84.60
2023-01-29T15:22:18.521Z,84.39
2023-01-29T15:24:48.232Z,85.09
2023-01-29T15:27:17.993Z,84.72
2023-01-29T15:29:57.005Z,84.93
2023-01-29T15:32:33.477Z,85.24
2023-01-29T15:35:02.005Z,85.56
2023-01-29T15:37:33.506Z,85.26
2023-01-29T15:40:02.194Z,84.86
2023-01-29T15:42:46.710Z,85.04
2023-01-29T15:45:33.693Z,85.10
2023-01-29T15:48:07.683Z,84.79
2023-01-29T15:50:37.565Z,84.84
2023-01-29T15:53:10.066Z,85.23
2023-01-29T15:55:37.819Z,85.05
2023-01-29T15:58:06.891Z,84.53
2023-01-29T16:00:34.489Z,84.17
2023-01-29T16:03:13.853Z,84.24
2023-01-29T16:05:41.920Z,83.50
2023-01-29T16:08:13.329Z,84.13
2023-01-29T16:10:42.184Z,84.22
2023-01-29T16:13:22.498Z,84.63
2023-01-29T16:15:56.297Z,84.63
2023-01-29T16:18:29.064Z,85.06
2023-01-29T16:20:59.283Z,84.05
2023-01-29T16:23:30.599Z,84.25
2023-01-29T16:26:03.035Z,84.77
2023-01-29T16:28:31.048Z,83.86
2023-01-29T16:31:02.670Z,84.41
2023-01-29T16:33:35.316Z,84.46
2023-01-29T16:36:11.683Z,84.38
2023-01-29T16:38:43.300Z,84.45
2023-01-29T16:41:21.580Z,84.49
2023-01-29T16:43:54.879Z,84.23
2023-01-29T16:46:26.797Z,84.10
2023-01-29T16:48:55.037Z,84.78
2023-01-29T16:51:27.377Z,83.93
2023-01-29T16:54:07.390Z,84.89
2023-01-29T16:56:35.418Z,85.43
2023-01-29T16:59:04.741Z,84.64
2023-01-29T17:01:34.792Z,84.59
2023-01-29T17:04:11.512Z,85.05
2023-01-29T17:06:41.852Z,85.23
2023-01-29T17:09:20.431Z,85.57
2023-01-29T17:11:50.341Z,85.57
2023-01-29T17:14:20.039Z,85.80
2023-01-29T17:17:03.333Z,85.25
2023-01-29T17:19:31.762Z,84.78
2023-01-29T17:22:00.127Z,84.68
2023-01-29T17:24:28.125Z,80.69
2023-01-29T17:26:56.249Z,79.49
2023-01-29T17:29:29.217Z,80.33
2023-01-29T17:32:00.013Z,80.88
2023-01-29T17:34:27.957Z,81.72
2023-01-29T17:36:57.232Z,82.57
2023-01-29T17:39:25.702Z,82.75
2023-01-29T17:41:55.703Z,82.42
2023-01-29T17:44:26.135Z,83.08
2023-01-29T17:46:57.996Z,83.01
2023-01-29T17:49:28.162Z,83.07
2023-01-29T17:51:57.067Z,82.71
2023-01-29T17:54:25.775Z,82.70
2023-01-29T17:56:53.999Z,82.90
2023-01-29T17:59:25.716Z,81.39
2023-01-29T18:01:53.507Z,78.87
2023-01-29T18:04:22.289Z,77.96
2023-01-29T18:06:51.445Z,75.80
2023-01-29T18:09:21.044Z,74.65
2023-01-29T18:11:50.325Z,73.55
2023-01-29T18:14:18.056Z,71.22
2023-01-29T18:16:46.427Z,70.94
2023-01-29T18:19:14.620Z,70.89
2023-01-29T18:21:42.835Z,70.28
2023-01-29T18:24:11.112Z,70.07
2023-01-29T18:26:39.080Z,70.35
2023-01-29T18:29:06.737Z,70.92
2023-01-29T18:31:34.657Z,71.36
2023-01-29T18:34:02.832Z,71.35
2023-01-29T18:36:30.679Z,71.27
2023-01-29T18:38:58.725Z,71.95
2023-01-29T18:41:26.856Z,71.81
2023-01-29T18:43:54.645Z,72.45
2023-01-29T18:46:24.401Z,71.81
2023-01-29T18:48:52.531Z,71.40
2023-01-29T18:51:20.319Z,71.64
2023-01-29T18:53:51.195Z,72.21
2023-01-29T18:56:19.795Z,71.84
2023-01-29T18:58:51.918Z,71.85
2023-01-29T19:01:24.282Z,72.27
2023-01-29T19:03:52.404Z,72.48
2023-01-29T19:06:20.213Z,71.95
2023-01-29T19:08:48.307Z,72.13
2023-01-29T19:11:16.369Z,72.63
2023-01-29T19:13:45.382Z,73.19
2023-01-29T19:16:14.156Z,72.55
2023-01-29T19:18:42.089Z,73.20
2023-01-29T19:21:12.666Z,72.89
2023-01-29T19:23:42.176Z,72.43
2023-01-29T19:26:10.611Z,73.33
2023-01-29T19:28:39.562Z,72.70
2023-01-29T19:31:11.192Z,73.20
2023-01-29T19:33:39.430Z,73.34
2023-01-29T19:36:07.898Z,73.32
2023-01-29T19:38:38.740Z,73.29
2023-01-29T19:41:06.506Z,74.15
2023-01-29T19:43:34.686Z,74.02
2023-01-29T19:46:02.556Z,74.10
2023-01-29T19:48:30.397Z,74.55
2023-01-29T19:51:00.088Z,74.62
2023-01-29T19:53:29.061Z,74.59
2023-01-29T19:56:02.448Z,74.80
2023-01-29T19:58:31.534Z,74.29
2023-01-29T20:01:02.161Z,74.45
2023-01-29T20:03:30.727Z,75.06
2023-01-29T20:06:03.803Z,74.43
2023-01-29T20:08:32.805Z,74.01
2023-01-29T20:11:01.139Z,74.78
2023-01-29T20:13:30.196Z,74.82
2023-01-29T20:15:58.394Z,74.51
2023-01-29T20:18:26.386Z,75.56
2023-01-29T20:20:54.233Z,75.40
2023-01-29T20:23:37.132Z,75.53
2023-01-29T20:26:16.604Z,75.60
2023-01-29T20:28:48.054Z,75.35
2023-01-29T20:31:16.849Z,74.94
2023-01-29T20:33:45.030Z,75.83
2023-01-29T20:36:14.723Z,75.81
2023-01-29T20:38:42.629Z,76.62
2023-01-29T20:41:14.082Z,75.98
2023-01-29T20:43:42.630Z,76.65
2023-01-29T20:46:11.400Z,76.50
2023-01-29T20:48:40.055Z,77.49
2023-01-29T20:51:15.333Z,76.85
2023-01-29T20:53:45.504Z,77.20
2023-01-29T20:56:15.050Z,76.89
2023-01-29T20:58:43.750Z,76.29
2023-01-29T21:01:14.126Z,76.52
2023-01-29T21:03:42.320Z,77.14
2023-01-29T21:06:11.219Z,77.42
2023-01-29T21:08:39.505Z,76.74
2023-01-29T21:11:08.704Z,77.03
2023-01-29T21:13:37.308Z,76.87
2023-01-29T21:16:05.155Z,77.12
2023-01-29T21:18:33.046Z,77.20
2023-01-29T21:21:01.151Z,77.24
2023-01-29T21:23:28.998Z,78.58
2023-01-29T21:26:04.678Z,77.96
2023-01-29T21:28:33.383Z,77.68
2023-01-29T21:31:06.062Z,78.71
2023-01-29T21:33:35.347Z,79.22
2023-01-29T21:36:03.377Z,78.68
2023-01-29T21:38:30.868Z,78.37
2023-01-29T21:41:09.844Z,78.86
2023-01-29T21:43:37.797Z,78.46
2023-01-29T21:46:13.186Z,79.34
2023-01-29T21:48:41.088Z,79.03
2023-01-29T21:51:09.000Z,78.96
2023-01-29T21:53:36.784Z,79.22
2023-01-29T21:56:05.771Z,79.33
2023-01-29T21:58:33.869Z,80.10
2023-01-29T22:01:35.747Z,80.08
2023-01-29T22:03:49.364Z,80.04
2023-01-29T22:06:16.994Z,79.79
2023-01-29T22:08:44.624Z,80.19
2023-01-29T22:11:12.473Z,80.49
2023-01-29T22:13:40.058Z,80.46
2023-01-29T22:16:07.912Z,80.69
2023-01-29T22:18:35.704Z,80.30
2023-01-29T22:21:03.564Z,80.01
2023-01-29T22:23:31.901Z,80.51
2023-01-29T22:26:07.097Z,80.98
2023-01-29T22:28:35.284Z,80.90
2023-01-29T22:31:04.338Z,79.77
2023-01-29T22:33:33.267Z,79.76
2023-01-29T22:36:01.066Z,79.61
2023-01-29T22:38:29.243Z,79.93
2023-01-29T22:40:57.585Z,80.34
2023-01-29T22:43:29.213Z,80.46
2023-01-29T22:45:57.097Z,80.47
2023-01-29T22:48:24.645Z,80.51
2023-01-29T22:51:09.468Z,80.16
2023-01-29T22:53:39.349Z,79.94
2023-01-29T22:56:07.837Z,80.84
2023-01-29T22:58:35.370Z,79.95
2023-01-29T23:01:04.068Z,80.71
2023-01-29T23:03:31.600Z,80.34
2023-01-29T23:05:59.149Z,80.07
2023-01-29T23:08:27.567Z,79.95
2023-01-29T23:10:55.085Z,80.79
2023-01-29T23:13:22.598Z,80.31
2023-01-29T23:15:59.184Z,80.08
2023-01-29T23:18:26.814Z,79.87
2023-01-29T23:20:58.108Z,79.89
2023-01-29T23:23:25.669Z,80.14
2023-01-29T23:26:16.167Z,79.32
2023-01-29T23:28:43.916Z,79.48
2023-01-29T23:31:11.663Z,79.18
2023-01-29T23:33:39.203Z,79.00
2023-01-29T23:36:07.957Z,78.68
2023-01-29T23:38:35.481Z,78.29
2023-01-29T23:41:03.114Z,78.08
2023-01-29T23:43:31.684Z,79.64
2023-01-29T23:45:59.214Z,78.87
2023-01-29T23:48:27.051Z,78.41
2023-01-29T23:50:54.914Z,79.44
2023-01-29T23:53:22.655Z,78.79
2023-01-29T23:55:57.858Z,78.92
2023-01-29T23:58:26.194Z,79.12
